Time;durP1;ratioP1;P1;durP2;ratioP2;P2;SDS_P1;SDS_P2;PMS_P1;PMS_P2;Temp;Humidity;BMP_temperature;BMP_pressure;BME280_temperature;BME280_humidity;BME280_pressure;Samples;Min_cycle;Max_cycle;Signal;HPM_P1;HPM_P2
2024/01/09 00:01:23;;;;;;;20.73;9.07;;;;;;;-8.57;93.17;101363.30;123472;1099;104344;-79
2024/01/09 00:03:54;;;;;;;24.97;9.90;;;;;;;-8.59;94.15;101363.11;123526;1099;104258;-78
2024/01/09 00:06:25;;;;;;;23.40;8.80;;;;;;;-8.59;93.45;101370.75;123414;1099;104389;-78
2024/01/09 00:08:58;;;;;;;17.23;6.97;;;;;;;-8.57;94.42;101378.58;123517;1099;104325;-79
2024/01/09 00:11:29;;;;;;;24.70;8.43;;;;;;;-8.61;93.06;101377.28;123585;1099;104357;-78
2024/01/09 00:14:01;;;;;;;23.27;8.20;;;;;;;-8.59;93.48;101382.56;123534;1099;104387;-79
2024/01/09 00:16:32;;;;;;;22.63;9.53;;;;;;;-8.59;94.07;101388.56;123499;1099;118339;-78
2024/01/09 00:19:03;;;;;;;23.90;9.17;;;;;;;-8.60;93.38;101391.84;123399;1099;104287;-78
2024/01/09 00:21:34;;;;;;;16.80;6.90;;;;;;;-8.58;93.49;101410.76;123339;1098;104280;-79
2024/01/09 00:24:06;;;;;;;18.80;8.20;;;;;;;-8.59;93.51;101397.84;123460;1099;104198;-78
2024/01/09 00:26:43;;;;;;;19.90;7.90;;;;;;;-8.59;92.96;101405.48;123454;1099;104220;-79
2024/01/09 00:29:14;;;;;;;21.53;8.67;;;;;;;-8.61;93.42;101409.47;123484;1099;104265;-78
2024/01/09 00:31:46;;;;;;;13.83;5.33;;;;;;;-8.60;94.19;101413.81;123139;1099;104416;-78
2024/01/09 00:34:17;;;;;;;24.10;10.47;;;;;;;-8.59;93.25;101413.11;123185;1099;104216;-78
2024/01/09 00:36:48;;;;;;;13.13;6.50;;;;;;;-8.58;92.79;101430.22;123521;1099;104284;-80
2024/01/09 00:39:19;;;;;;;20.50;8.30;;;;;;;-8.59;92.64;101415.66;123257;1099;104309;-79
2024/01/09 00:41:50;;;;;;;17.43;6.43;;;;;;;-8.58;92.41;101430.22;123167;1100;104389;-78
2024/01/09 00:44:21;;;;;;;16.43;7.57;;;;;;;-8.59;92.19;101430.92;123441;1099;104287;-79
2024/01/09 00:46:52;;;;;;;20.07;6.87;;;;;;;-8.58;90.97;101436.20;123458;1099;104270;-79
2024/01/09 00:49:23;;;;;;;23.50;8.10;;;;;;;-8.55;91.77;101453.51;123137;1102;104303;-79
2024/01/09 00:51:54;;;;;;;17.23;6.53;;;;;;;-8.55;91.65;101440.78;123589;1099;104168;-79
2024/01/09 00:54:25;;;;;;;24.30;7.30;;;;;;;-8.56;90.61;101450.03;123432;1098;104837;-79
2024/01/09 00:56:57;;;;;;;21.07;7.50;;;;;;;-8.58;91.00;101446.39;123427;1099;104316;-79
2024/01/09 00:59:28;;;;;;;23.30;8.03;;;;;;;-8.60;91.15;101450.38;123481;1099;104357;-79
2024/01/09 01:01:59;;;;;;;11.67;4.67;;;;;;;-8.60;90.01;101451.99;123653;1099;104271;-79
2024/01/09 01:04:30;;;;;;;17.00;6.90;;;;;;;-8.64;90.58;101463.42;123437;1099;104267;-79
2024/01/09 01:07:01;;;;;;;17.60;5.90;;;;;;;-8.65;90.76;101459.05;123502;1099;104345;-79
2024/01/09 01:09:35;;;;;;;19.17;6.20;;;;;;;-8.67;90.12;101466.48;123487;1099;104242;-80
2024/01/09 01:12:07;;;;;;;10.03;4.80;;;;;;;-8.70;90.42;101473.73;123516;1099;104224;-80
2024/01/09 01:14:38;;;;;;;24.55;7.60;;;;;;;-8.72;89.50;101479.36;123499;1099;104303;-79
2024/01/09 01:17:09;;;;;;;17.67;6.67;;;;;;;-8.72;89.92;101481.91;123099;1099;104252;-79
2024/01/09 01:19:41;;;;;;;18.60;6.10;;;;;;;-8.75;89.38;101487.50;123158;1099;104380;-79
2024/01/09 01:22:12;;;;;;;20.23;6.13;;;;;;;-8.76;88.08;101485.67;123208;1099;104277;-79
2024/01/09 01:24:43;;;;;;;23.00;6.83;;;;;;;-8.78;89.92;101486.22;123653;1099;104386;-79
2024/01/09 01:27:14;;;;;;;14.00;5.30;;;;;;;-8.76;88.99;101490.76;123399;1099;105668;-79
2024/01/09 01:29:45;;;;;;;20.53;7.70;;;;;;;-8.76;90.23;101498.39;123514;1099;104269;-78
2024/01/09 01:32:17;;;;;;;20.83;6.97;;;;;;;-8.75;88.04;101497.69;123546;1098;104476;-80
2024/01/09 01:34:48;;;;;;;18.20;7.73;;;;;;;-8.77;87.98;101499.13;123420;1098;104242;-79
2024/01/09 01:37:19;;;;;;;22.77;7.57;;;;;;;-8.76;88.05;101511.11;123424;1099;104319;-79
2024/01/09 01:39:50;;;;;;;12.05;5.55;;;;;;;-8.78;88.99;101522.73;123449;1099;104342;-79
2024/01/09 01:42:21;;;;;;;20.20;7.73;;;;;;;-8.80;88.90;101519.09;123183;1099;104315;-79
2024/01/09 01:44:53;;;;;;;19.60;7.90;;;;;;;-8.79;88.43;101525.98;123517;1099;104759;-79
2024/01/09 01:47:24;;;;;;;17.67;6.47;;;;;;;-8.82;89.03;101520.50;123540;1099;104223;-79
2024/01/09 01:49:55;;;;;;;16.67;5.57;;;;;;;-8.85;86.00;101530.28;123528;1099;104316;-80
2024/01/09 01:52:27;;;;;;;23.10;7.27;;;;;;;-8.89;87.08;101531.53;123185;1102;104255;-79
2024/01/09 01:54:59;;;;;;;18.93;7.47;;;;;;;-8.91;88.36;101542.21;123460;1099;104210;-79
2024/01/09 01:57:30;;;;;;;20.30;7.43;;;;;;;-8.90;87.35;101549.14;123398;1099;104523;-80
2024/01/09 02:00:02;;;;;;;19.10;7.13;;;;;;;-8.92;88.21;101543.85;123374;1099;104239;-79
2024/01/09 02:02:43;;;;;;;16.53;5.80;;;;;;;-8.95;86.74;101547.64;123412;1099;104271;-79
2024/01/09 02:05:17;;;;;;;18.60;6.30;;;;;;;-8.98;87.44;101557.42;123428;1099;104194;-79
2024/01/09 02:07:53;;;;;;;9.80;4.00;;;;;;;-9.05;86.68;101574.42;123370;1099;104238;-79
2024/01/09 02:10:24;;;;;;;20.70;7.87;;;;;;;-9.09;86.63;101564.56;123460;1099;104236;-79
2024/01/09 02:12:56;;;;;;;13.27;5.47;;;;;;;-9.11;87.57;101588.88;123450;1099;104268;-80
2024/01/09 02:15:27;;;;;;;21.50;6.50;;;;;;;-9.16;87.48;101577.21;123449;1099;104268;-78
2024/01/09 02:17:58;;;;;;;19.33;7.17;;;;;;;-9.18;87.45;101585.34;123418;1099;104322;-78
2024/01/09 02:20:29;;;;;;;17.00;6.20;;;;;;;-9.22;87.01;101577.31;123459;1099;104384;-79
2024/01/09 02:23:00;;;;;;;20.73;6.17;;;;;;;-9.23;86.47;101597.45;123416;1099;104377;-79
2024/01/09 02:25:35;;;;;;;17.30;6.73;;;;;;;-9.27;87.15;101590.13;123438;1099;104245;-78
2024/01/09 02:28:15;;;;;;;12.65;4.50;;;;;;;-9.26;85.94;101597.05;123411;1099;104245;-79
2024/01/09 02:30:46;;;;;;;12.77;4.37;;;;;;;-9.31;86.34;101596.45;123421;1099;104347;-79
2024/01/09 02:33:18;;;;;;;15.83;5.83;;;;;;;-9.34;86.51;101620.55;123444;1099;104280;-80
2024/01/09 02:35:49;;;;;;;15.57;4.93;;;;;;;-9.37;85.51;101610.89;123424;1099;104383;-79
2024/01/09 02:38:21;;;;;;;19.30;6.87;;;;;;;-9.41;86.04;101612.13;123428;1099;104300;-79
2024/01/09 02:40:52;;;;;;;18.90;5.63;;;;;;;-9.41;85.83;101618.80;123373;1099;104313;-79
2024/01/09 02:43:25;;;;;;;11.53;5.03;;;;;;;-9.46;85.08;101618.20;123392;1099;104293;-79
2024/01/09 02:45:56;;;;;;;12.40;4.70;;;;;;;-9.51;84.58;101616.69;123209;1099;104242;-79
2024/01/09 02:48:27;;;;;;;14.30;5.77;;;;;;;-9.56;85.26;101632.96;123104;1098;104504;-79
2024/01/09 02:50:58;;;;;;;19.63;6.13;;;;;;;-9.60;85.78;101629.11;123071;1099;104229;-79
2024/01/09 02:53:29;;;;;;;11.40;4.67;;;;;;;-9.63;84.25;101643.01;123018;1099;104345;-79
2024/01/09 02:56:01;;;;;;;16.00;6.20;;;;;;;-9.67;84.60;101641.69;123217;1099;104274;-79
2024/01/09 02:58:32;;;;;;;14.60;5.93;;;;;;;-9.72;84.65;101640.17;123349;1099;104350;-79
2024/01/09 03:01:03;;;;;;;16.07;6.00;;;;;;;-9.76;84.67;101659.15;123411;1099;104373;-79
2024/01/09 03:03:34;;;;;;;18.53;6.53;;;;;;;-9.80;85.00;101651.84;123419;1099;104268;-79
2024/01/09 03:06:06;;;;;;;14.33;6.07;;;;;;;-9.79;84.91;101657.83;123524;1099;104261;-79
2024/01/09 03:08:37;;;;;;;17.20;5.70;;;;;;;-9.84;84.14;101662.30;123369;1099;104280;-79
2024/01/09 03:11:08;;;;;;;22.47;6.60;;;;;;;-9.89;84.21;101660.77;123439;1099;104341;-79
2024/01/09 03:13:40;;;;;;;16.70;5.73;;;;;;;-9.91;84.29;101682.48;123397;1099;104650;-78
2024/01/09 03:16:14;;;;;;;15.70;5.47;;;;;;;-9.96;83.48;101676.78;123360;1099;104248;-79
2024/01/09 03:18:44;;;;;;;;;;;;;;;-9.99;83.64;101693.23;123661;1099;104819;-79
2024/01/09 03:21:16;;;;;;;12.45;4.80;;;;;;;-10.04;83.85;101700.23;123468;1099;104236;-79
2024/01/09 03:23:48;;;;;;;14.07;5.23;;;;;;;-10.09;83.80;101698.70;123504;1099;104389;-78
2024/01/09 03:26:19;;;;;;;13.07;5.03;;;;;;;-10.12;83.19;101704.27;123518;1099;104341;-79
2024/01/09 03:28:50;;;;;;;13.53;4.80;;;;;;;-10.20;82.70;101712.47;123583;1098;104261;-78
2024/01/09 03:31:23;;;;;;;22.33;7.07;;;;;;;-10.25;83.43;101718.55;123452;1099;104609;-77
2024/01/09 03:33:54;;;;;;;11.83;4.63;;;;;;;-10.30;82.83;101724.59;123392;1099;104213;-79
2024/01/09 03:36:25;;;;;;;14.87;5.03;;;;;;;-10.35;82.95;101720.55;123373;1099;104265;-77
2024/01/09 03:38:56;;;;;;;18.15;6.50;;;;;;;-10.42;82.71;101728.95;123369;1099;104384;-78
2024/01/09 03:41:27;;;;;;;20.07;7.63;;;;;;;-10.45;83.28;101727.59;123075;1100;104460;-78
2024/01/09 03:43:58;;;;;;;14.93;5.00;;;;;;;-10.50;82.75;101743.13;123517;1099;104344;-78
2024/01/09 03:46:30;;;;;;;20.40;6.10;;;;;;;-10.56;83.16;101727.05;123373;1098;104246;-79
2024/01/09 03:49:01;;;;;;;18.47;6.37;;;;;;;-10.58;83.43;101736.08;123398;1099;104239;-78
2024/01/09 03:51:32;;;;;;;20.20;6.77;;;;;;;-10.61;83.64;101743.27;123482;1099;104381;-78
2024/01/09 03:54:03;;;;;;;14.97;5.47;;;;;;;-10.62;83.23;101753.20;123416;1099;104316;-78
2024/01/09 03:56:35;;;;;;;13.33;5.37;;;;;;;-10.67;83.48;101757.64;123436;1099;104268;-78
2024/01/09 03:59:06;;;;;;;15.57;6.63;;;;;;;-10.71;82.98;101765.51;123370;1099;104284;-78
2024/01/09 04:01:39;;;;;;;22.17;6.87;;;;;;;-10.75;83.13;101760.70;123449;1099;104354;-78
2024/01/09 04:04:10;;;;;;;17.87;6.83;;;;;;;-10.79;83.64;101764.44;123432;1099;104268;-77
2024/01/09 04:06:44;;;;;;;20.50;6.85;;;;;;;-10.80;83.55;101769.30;123364;1099;104322;-77
2024/01/09 04:09:16;;;;;;;24.10;7.07;;;;;;;-10.83;83.92;101776.47;123401;1099;104271;-78
2024/01/09 04:11:47;;;;;;;18.73;7.07;;;;;;;-10.83;83.48;101786.62;123433;1099;104270;-78
2024/01/09 04:14:18;;;;;;;16.80;6.05;;;;;;;-10.88;83.32;101793.58;123416;1098;104270;-78
2024/01/09 04:16:49;;;;;;;20.23;7.13;;;;;;;-10.92;83.37;101798.91;123406;1099;104351;-78
2024/01/09 04:19:20;;;;;;;14.27;6.10;;;;;;;-10.95;83.31;101804.48;123322;1099;104393;-78
2024/01/09 04:21:52;;;;;;;15.77;6.00;;;;;;;-10.99;83.16;101807.28;123456;1098;104315;-78
2024/01/09 04:24:23;;;;;;;17.73;6.30;;;;;;;-10.99;83.35;101812.34;123443;1099;104686;-78
2024/01/09 04:26:54;;;;;;;20.20;7.17;;;;;;;-11.03;83.32;101822.74;123439;1099;104219;-78
2024/01/09 04:29:25;;;;;;;15.50;5.17;;;;;;;-11.06;83.13;101829.95;123369;1099;104322;-77
2024/01/09 04:31:58;;;;;;;20.27;6.27;;;;;;;-11.09;83.30;101843.09;123350;1099;104338;-78
2024/01/09 04:34:29;;;;;;;19.50;6.27;;;;;;;-11.11;82.93;101849.58;123384;1099;104307;-78
2024/01/09 04:37:00;;;;;;;18.57;5.90;;;;;;;-11.16;83.20;101844.54;123516;1099;104339;-78
2024/01/09 04:39:31;;;;;;;19.27;6.17;;;;;;;-11.18;83.18;101846.85;123396;1099;104270;-78
2024/01/09 04:42:03;;;;;;;17.37;6.00;;;;;;;-11.19;82.99;101844.09;123387;1099;104428;-77
2024/01/09 04:44:34;;;;;;;14.77;5.53;;;;;;;-11.23;82.60;101858.87;123376;1099;104341;-78
2024/01/09 04:47:05;;;;;;;16.13;5.63;;;;;;;-11.27;82.53;101870.87;123419;1099;104354;-77
2024/01/09 04:49:36;;;;;;;17.70;6.37;;;;;;;-11.30;82.57;101870.44;123362;1099;104262;-78
2024/01/09 04:52:08;;;;;;;14.83;5.40;;;;;;;-11.32;82.74;101876.91;123432;1099;104354;-78
2024/01/09 04:54:39;;;;;;;17.83;5.83;;;;;;;-11.36;82.54;101878.06;123377;1099;104311;-77
2024/01/09 04:57:10;;;;;;;16.73;5.97;;;;;;;-11.39;82.61;101880.16;123396;1099;104354;-77
2024/01/09 04:59:42;;;;;;;15.83;5.67;;;;;;;-11.42;82.20;101885.73;123324;1099;104232;-78
2024/01/09 05:02:13;;;;;;;15.20;5.53;;;;;;;-11.44;81.67;101896.33;123303;1099;109435;-77
2024/01/09 05:04:44;;;;;;;12.67;4.77;;;;;;;-11.49;81.99;101894.75;123163;1099;104310;-77
2024/01/09 05:07:16;;;;;;;18.45;5.70;;;;;;;-11.52;81.99;101909.51;123681;1099;104389;-77
2024/01/09 05:09:47;;;;;;;13.10;5.00;;;;;;;-11.55;82.01;101906.53;123571;1099;104223;-78
2024/01/09 05:12:18;;;;;;;12.47;4.37;;;;;;;-11.57;81.79;101919.88;123476;1099;104360;-78
2024/01/09 05:14:49;;;;;;;15.60;5.83;;;;;;;-11.60;82.08;101921.97;123469;1098;104262;-78
2024/01/09 05:17:20;;;;;;;18.67;6.37;;;;;;;-11.60;82.31;101924.50;123445;1099;104264;-78
2024/01/09 05:19:51;;;;;;;16.40;5.90;;;;;;;-11.61;82.30;101926.81;123417;1099;104201;-77
2024/01/09 05:22:22;;;;;;;14.57;4.97;;;;;;;-11.63;81.81;101933.28;123330;1099;104268;-77
2024/01/09 05:24:53;;;;;;;16.50;5.63;;;;;;;-11.65;82.19;101930.52;123441;1099;104300;-78
2024/01/09 05:27:24;;;;;;;20.90;7.00;;;;;;;-11.67;81.73;101934.45;123411;1099;104383;-77
2024/01/09 05:29:56;;;;;;;24.63;7.27;;;;;;;-11.69;82.01;101945.95;123577;1099;104303;-78
2024/01/09 05:32:27;;;;;;;20.27;6.43;;;;;;;-11.70;82.17;101950.80;123449;1099;104312;-77
2024/01/09 05:34:59;;;;;;;24.43;7.87;;;;;;;-11.73;81.97;101953.82;123338;1099;104236;-77
2024/01/09 05:37:30;;;;;;;20.33;6.43;;;;;;;-11.75;81.97;101971.32;123536;1099;104643;-77
2024/01/09 05:40:03;;;;;;;21.93;7.67;;;;;;;-11.77;82.24;101964.18;123406;1099;104261;-78
2024/01/09 05:42:35;;;;;;;25.37;7.28;;;;;;;-11.80;82.23;101972.23;123633;1099;104339;-78
2024/01/09 05:45:07;;;;;;;21.43;6.33;;;;;;;-11.81;81.72;101977.08;123487;1099;104241;-78
2024/01/09 05:47:39;;;;;;;20.93;6.67;;;;;;;-11.83;82.21;101981.00;123640;1099;104341;-78
2024/01/09 05:50:12;;;;;;;27.23;7.63;;;;;;;-11.85;81.71;101992.53;123670;1099;104341;-78
2024/01/09 05:52:43;;;;;;;23.42;6.78;;;;;;;-11.87;81.61;101996.42;123645;1099;104294;-77
2024/01/09 05:55:15;;;;;;;21.73;6.77;;;;;;;-11.89;81.69;102000.35;124022;1099;104306;-79
2024/01/09 05:57:46;;;;;;;22.70;6.50;;;;;;;-11.90;81.51;101995.97;123915;1099;104402;-79
2024/01/09 06:00:18;;;;;;;22.10;7.53;;;;;;;-11.92;82.22;102003.37;123817;1099;104232;-78
2024/01/09 06:02:50;;;;;;;20.70;7.10;;;;;;;-11.92;81.72;102005.00;123547;1099;104236;-78
2024/01/09 06:05:21;;;;;;;18.60;6.10;;;;;;;-11.92;81.93;102017.66;123789;1099;104188;-78
2024/01/09 06:07:52;;;;;;;12.07;4.43;;;;;;;-11.93;80.63;102016.75;123708;1099;104261;-77
2024/01/09 06:10:25;;;;;;;18.00;5.83;;;;;;;-11.97;80.83;102015.34;123695;1099;104322;-78
2024/01/09 06:12:56;;;;;;;17.73;6.03;;;;;;;-11.98;81.31;102013.53;124060;1099;104309;-78
2024/01/09 06:15:28;;;;;;;10.13;4.23;;;;;;;-11.98;81.07;102021.13;123988;1099;104236;-78
2024/01/09 06:18:01;;;;;;;15.10;5.17;;;;;;;-12.00;80.69;102019.95;124198;1098;104325;-78
2024/01/09 06:20:32;;;;;;;11.70;4.05;;;;;;;-12.00;80.36;102037.67;123963;1099;104261;-77
2024/01/09 06:23:03;;;;;;;21.03;6.20;;;;;;;-12.01;80.54;102042.51;124343;1099;104235;-78
2024/01/09 06:25:36;;;;;;;14.20;5.20;;;;;;;-12.01;80.64;102047.57;124286;1098;104160;-78
2024/01/09 06:28:07;;;;;;;16.13;4.83;;;;;;;-12.00;80.37;102045.27;124085;1099;104178;-79
2024/01/09 06:30:38;;;;;;;15.63;5.33;;;;;;;-11.98;80.72;102058.16;123787;1099;104217;-79
2024/01/09 06:33:12;;;;;;;18.77;6.60;;;;;;;-11.97;80.79;102060.00;123748;1099;104245;-79
2024/01/09 06:35:43;;;;;;;14.63;4.87;;;;;;;-11.94;80.31;102071.50;123944;1099;102547;-78
2024/01/09 06:38:15;;;;;;;18.85;6.65;;;;;;;-11.94;80.39;102070.59;124046;1098;104243;-78
2024/01/09 06:40:46;;;;;;;22.47;6.87;;;;;;;-11.93;80.75;102082.57;124037;1099;104136;-78
2024/01/09 06:43:18;;;;;;;17.60;5.90;;;;;;;-11.87;80.70;102075.85;123889;1099;104185;-79
2024/01/09 06:45:49;;;;;;;14.83;5.13;;;;;;;-11.80;80.90;102080.20;124652;1099;104232;-79
2024/01/09 06:48:20;;;;;;;17.90;6.43;;;;;;;-11.76;81.10;102088.48;124679;1099;104396;-79
2024/01/09 06:50:51;;;;;;;18.43;5.83;;;;;;;-11.73;80.36;102088.03;124334;1099;104216;-79
2024/01/09 06:53:23;;;;;;;16.17;5.40;;;;;;;-11.65;80.43;102094.24;124545;1098;104233;-79
2024/01/09 06:55:54;;;;;;;15.23;5.20;;;;;;;-11.64;80.37;102097.00;124224;1099;104203;-79
2024/01/09 06:58:25;;;;;;;13.87;4.60;;;;;;;-11.63;80.28;102108.04;124174;1099;104248;-79
2024/01/09 07:00:56;;;;;;;18.40;5.00;;;;;;;-11.60;79.81;102105.97;124587;1099;104322;-79
2024/01/09 07:03:27;;;;;;;15.57;5.23;;;;;;;-11.62;79.59;102108.27;124520;1099;104245;-79
2024/01/09 07:06:02;;;;;;;14.63;4.97;;;;;;;-11.58;79.77;102119.77;124355;1099;104341;-79
2024/01/09 07:08:38;;;;;;;18.47;5.07;;;;;;;-11.65;79.59;102123.01;123833;1099;104322;-79
2024/01/09 07:11:12;;;;;;;14.37;4.70;;;;;;;-11.71;79.07;102123.72;126191;1099;101785;-79
2024/01/09 07:13:42;;;;;;;;;;;;;;;-11.78;79.14;102127.87;125332;1098;104294;-79
2024/01/09 07:16:13;;;;;;;12.60;4.60;;;;;;;-11.84;78.65;102121.88;124499;1098;104277;-79
2024/01/09 07:18:45;;;;;;;18.93;5.63;;;;;;;-11.89;78.96;102129.47;124133;1099;104309;-79
2024/01/09 07:21:16;;;;;;;15.43;4.63;;;;;;;-11.94;78.60;102141.47;124751;1098;104340;-78
2024/01/09 07:23:54;;;;;;;15.35;5.50;;;;;;;-11.96;79.58;102146.31;124665;1099;101946;-79
2024/01/09 07:26:25;;;;;;;11.17;4.37;;;;;;;-11.91;78.35;102153.65;124089;1099;104396;-79
2024/01/09 07:28:56;;;;;;;22.93;5.53;;;;;;;-11.89;78.55;102147.20;124308;1099;104248;-79
2024/01/09 07:31:27;;;;;;;19.60;5.67;;;;;;;-11.76;78.35;102148.36;124663;1099;104191;-79
2024/01/09 07:33:58;;;;;;;16.07;5.40;;;;;;;-11.55;78.73;102154.78;124319;1099;104234;-79
2024/01/09 07:36:30;;;;;;;17.15;6.00;;;;;;;-11.37;79.06;102162.58;124378;1099;104245;-79
2024/01/09 07:39:01;;;;;;;13.87;5.10;;;;;;;-11.21;77.89;102176.81;124294;1099;104171;-79
2024/01/09 07:41:32;;;;;;;11.40;4.30;;;;;;;-11.08;77.59;102179.57;124800;1099;104370;-79
2024/01/09 07:44:04;;;;;;;14.57;4.57;;;;;;;-10.97;78.24;102177.67;124984;1099;104239;-78
2024/01/09 07:46:35;;;;;;;19.03;6.27;;;;;;;-10.88;78.40;102186.64;124762;1099;104203;-79
2024/01/09 07:49:13;;;;;;;15.97;5.50;;;;;;;-10.75;78.76;102181.73;124341;1099;104165;-78
2024/01/09 07:51:44;;;;;;;19.10;5.57;;;;;;;-10.64;79.15;102183.31;124762;1099;104185;-80
2024/01/09 07:54:17;;;;;;;13.47;4.90;;;;;;;-10.54;78.25;102179.80;125411;1098;102932;-79
2024/01/09 07:56:49;;;;;;;17.87;6.40;;;;;;;-10.45;78.59;102194.52;124080;1099;104281;-79
2024/01/09 07:59:20;;;;;;;16.87;5.87;;;;;;;-10.37;78.31;102188.96;124738;1099;102007;-79
2024/01/09 08:01:55;;;;;;;19.10;5.77;;;;;;;-10.27;79.04;102191.17;124522;1099;104343;-78
2024/01/09 08:04:29;;;;;;;21.70;7.50;;;;;;;-10.17;78.72;102194.35;124497;1099;104233;-79
2024/01/09 08:07:00;;;;;;;16.97;5.63;;;;;;;-10.02;79.07;102194.02;124284;1099;104277;-79
2024/01/09 08:09:31;;;;;;;20.53;6.57;;;;;;;-9.96;78.55;102193.97;124098;1099;104269;-78
2024/01/09 08:12:02;;;;;;;17.10;5.83;;;;;;;-9.92;78.89;102192.77;124247;1099;101987;-78
2024/01/09 08:14:33;;;;;;;18.43;6.00;;;;;;;-9.88;78.12;102197.61;124263;1099;104160;-80
2024/01/09 08:17:06;;;;;;;19.80;6.07;;;;;;;-9.84;78.22;102205.88;124512;1099;104219;-80
2024/01/09 08:19:38;;;;;;;17.97;7.03;;;;;;;-9.73;78.51;102206.52;124681;1099;104344;-77
2024/01/09 08:22:57;;;;;;;;;;;;;;;;;;;;;
2024/01/09 08:26:03;;;;;;;17.00;5.20;;;;;;;-9.56;76.96;102197.13;124543;1099;105453;-78
2024/01/09 08:28:34;;;;;;;17.10;5.60;;;;;;;-9.45;76.93;102211.36;124608;1099;102241;-78
2024/01/09 08:31:07;;;;;;;13.90;5.43;;;;;;;-9.37;77.69;102205.73;124600;1099;104351;-78
2024/01/09 08:33:38;;;;;;;12.93;4.50;;;;;;;-9.27;77.91;102218.11;124345;1099;104421;-78
2024/01/09 08:36:11;;;;;;;14.23;5.17;;;;;;;-9.19;76.73;102207.42;124156;1099;102697;-78
2024/01/09 08:38:46;;;;;;;13.93;5.37;;;;;;;-9.12;77.51;102204.11;124525;1098;104261;-78
2024/01/09 08:41:20;;;;;;;16.63;5.60;;;;;;;-9.08;75.96;102207.30;124382;1099;101861;-77
2024/01/09 08:43:54;;;;;;;17.90;5.93;;;;;;;-9.00;76.73;102210.01;124387;1099;104201;-78
2024/01/09 08:46:26;;;;;;;19.70;6.13;;;;;;;-8.97;75.87;102208.80;124386;1099;104239;-78
2024/01/09 08:48:59;;;;;;;18.50;6.00;;;;;;;-8.91;76.87;102201.09;124346;1099;104214;-77
2024/01/09 08:51:30;;;;;;;18.10;6.53;;;;;;;-8.84;75.60;102207.98;124637;1098;104185;-77
2024/01/09 08:54:02;;;;;;;16.03;5.37;;;;;;;-8.84;75.37;102201.25;124046;1099;104194;-78
2024/01/09 08:56:33;;;;;;;19.80;6.00;;;;;;;-8.89;75.06;102199.70;124417;1099;104210;-79
2024/01/09 08:59:07;;;;;;;17.73;6.03;;;;;;;-8.88;75.49;102206.61;124584;1099;102992;-77
2024/01/09 09:01:39;;;;;;;21.00;6.83;;;;;;;-8.79;75.47;102220.61;124461;1099;104373;-76
2024/01/09 09:04:10;;;;;;;17.83;6.00;;;;;;;-8.85;73.22;102219.76;124131;1099;104143;-77
2024/01/09 09:06:41;;;;;;;15.30;5.63;;;;;;;-8.84;73.87;102208.88;124737;1099;102787;-77
2024/01/09 09:09:13;;;;;;;14.47;5.20;;;;;;;-8.81;73.39;102213.49;124605;1099;104335;-77
2024/01/09 09:11:45;;;;;;;14.40;4.97;;;;;;;-8.86;73.18;102217.94;124561;1099;104297;-78
2024/01/09 09:14:16;;;;;;;13.80;4.80;;;;;;;-8.78;73.76;102219.02;124489;1099;102113;-76
2024/01/09 09:16:48;;;;;;;15.23;5.17;;;;;;;-8.63;76.07;102221.15;124560;1099;104355;-78
2024/01/09 09:19:23;;;;;;;14.20;5.30;;;;;;;-8.51;73.24;102210.13;124528;1099;104223;-79
2024/01/09 09:21:54;;;;;;;13.90;4.87;;;;;;;-8.52;74.76;102235.37;124433;1099;104283;-77
2024/01/09 09:24:27;;;;;;;16.00;5.37;;;;;;;-8.55;72.76;102237.48;124077;1102;104303;-77
2024/01/09 09:26:58;;;;;;;16.70;5.30;;;;;;;-8.54;73.07;102242.80;124557;1099;104162;-77
2024/01/09 09:29:31;;;;;;;13.70;5.25;;;;;;;-8.56;73.13;102240.73;124718;1099;104159;-77
2024/01/09 09:32:03;;;;;;;14.87;5.13;;;;;;;-8.51;72.44;102243.22;124682;1099;105235;-78
2024/01/09 09:34:35;;;;;;;13.67;4.73;;;;;;;-8.51;71.69;102244.82;124071;1099;104271;-78
2024/01/09 09:37:06;;;;;;;18.97;6.67;;;;;;;-8.46;72.73;102236.22;124308;1099;104313;-78
2024/01/09 09:39:37;;;;;;;14.97;5.10;;;;;;;-8.39;72.30;102251.58;124571;1099;101930;-77
2024/01/09 09:42:12;;;;;;;15.20;5.70;;;;;;;-8.38;72.72;102244.85;124522;1099;103131;-78
2024/01/09 09:44:47;;;;;;;13.10;5.45;;;;;;;-8.31;73.02;102245.00;124384;1099;104271;-78
2024/01/09 09:47:18;;;;;;;14.83;5.50;;;;;;;-8.19;72.71;102243.24;124426;1099;104294;-78
2024/01/09 09:49:52;;;;;;;19.57;7.93;;;;;;;-8.12;74.75;102230.62;124482;1098;104271;-78
2024/01/09 09:52:25;;;;;;;17.25;6.42;;;;;;;-8.00;73.76;102236.48;124468;1099;104296;-78
2024/01/09 09:54:58;;;;;;;24.43;9.28;;;;;;;-7.98;75.12;102230.91;124601;1099;104137;-78
2024/01/09 09:57:29;;;;;;;19.20;5.30;;;;;;;-7.84;74.13;102240.40;124305;1099;103194;-77
2024/01/09 10:00:08;;;;;;;14.13;5.47;;;;;;;-7.90;72.62;102242.14;124234;1099;104238;-77
2024/01/09 10:02:45;;;;;;;16.70;6.20;;;;;;;-7.91;74.06;102236.84;126191;1099;102527;-77
2024/01/09 10:05:19;;;;;;;13.70;5.27;;;;;;;-7.91;73.31;102252.12;126367;1099;101871;-78
2024/01/09 10:07:53;;;;;;;14.13;5.17;;;;;;;-8.03;74.05;102239.52;124294;1099;104179;-77
2024/01/09 10:10:26;;;;;;;15.60;5.50;;;;;;;-8.05;73.28;102251.14;124197;1099;104242;-78
2024/01/09 10:12:59;;;;;;;16.17;5.30;;;;;;;-8.16;72.07;102246.21;124394;1099;104729;-77
2024/01/09 10:15:31;;;;;;;11.37;4.33;;;;;;;-8.19;72.29;102250.88;124047;1099;104363;-77
2024/01/09 10:18:06;;;;;;;13.83;5.03;;;;;;;-8.24;72.10;102250.25;124741;1099;104232;-78
2024/01/09 10:20:50;;;;;;;15.67;5.23;;;;;;;-8.24;73.57;102254.40;124473;1099;104219;-77
2024/01/09 10:23:24;;;;;;;13.63;5.50;;;;;;;-8.21;72.43;102244.64;124315;1099;104222;-78
2024/01/09 10:25:56;;;;;;;14.87;5.67;;;;;;;-8.21;73.24;102244.64;124704;1099;104294;-78
2024/01/09 10:28:27;;;;;;;21.53;6.53;;;;;;;-8.18;73.82;102256.19;124431;1099;104246;-79
2024/01/09 10:30:59;;;;;;;17.80;6.17;;;;;;;-8.18;71.49;102246.00;124250;1099;104242;-79
2024/01/09 10:33:31;;;;;;;17.20;6.50;;;;;;;-8.19;72.36;102236.51;123997;1099;104284;-79
2024/01/09 10:36:03;;;;;;;16.07;5.97;;;;;;;-8.18;73.48;102245.06;124456;1099;104319;-77
2024/01/09 10:38:36;;;;;;;15.73;5.07;;;;;;;-8.16;74.06;102239.48;123884;1099;104521;-77
2024/01/09 10:41:22;;;;;;;14.23;4.60;;;;;;;-8.08;71.82;102244.72;124432;1099;104239;-78
2024/01/09 10:43:54;;;;;;;17.47;5.50;;;;;;;-8.07;72.54;102237.28;124315;1098;102633;-78
2024/01/09 10:46:29;;;;;;;13.43;5.00;;;;;;;-8.03;70.20;102234.42;123848;1099;104238;-78
2024/01/09 10:49:03;;;;;;;15.93;5.17;;;;;;;-8.03;73.41;102233.52;126794;1099;101856;-79
2024/01/09 10:51:43;;;;;;;15.00;5.57;;;;;;;-8.01;73.04;102234.64;126178;1099;102169;-79
2024/01/09 10:54:17;;;;;;;15.30;5.57;;;;;;;-8.00;73.37;102236.48;126566;1099;102694;-78
2024/01/09 10:56:50;;;;;;;18.30;5.80;;;;;;;-7.99;73.26;102236.70;125027;1099;104165;-79
2024/01/09 10:59:23;;;;;;;18.07;5.62;;;;;;;-7.95;72.76;102238.02;124514;1099;104166;-78
2024/01/09 11:01:55;;;;;;;17.47;5.93;;;;;;;-7.95;72.72;102244.06;124719;1099;104703;-78
2024/01/09 11:04:28;;;;;;;17.43;4.97;;;;;;;-7.92;72.37;102245.19;124551;1098;104206;-77
2024/01/09 11:06:59;;;;;;;13.93;4.73;;;;;;;-7.86;71.86;102246.02;124597;1099;104217;-78
2024/01/09 11:09:40;;;;;;;14.73;5.37;;;;;;;-7.84;73.21;102229.30;124429;1099;104201;-78
2024/01/09 11:12:15;;;;;;;15.47;5.50;;;;;;;-7.87;71.76;102232.34;124501;1099;104249;-77
2024/01/09 11:15:01;;;;;;;12.80;5.23;;;;;;;-7.86;71.51;102235.83;124817;1099;104239;-79
2024/01/09 11:17:34;;;;;;;22.87;7.97;;;;;;;-7.86;72.16;102225.63;124720;1099;104159;-78
2024/01/09 11:20:12;;;;;;;19.20;7.07;;;;;;;-7.82;73.36;102223.71;124463;1098;102186;-78
2024/01/09 11:22:44;;;;;;;25.00;9.30;;;;;;;-7.77;73.40;102222.70;126077;1102;102268;-79